createdAt,value
2022-09-16T00:00:58.248Z,15.30
2022-09-16T00:03:25.683Z,15.10
2022-09-16T00:05:54.267Z,15.30
2022-09-16T00:08:22.695Z,15.20
2022-09-16T00:10:50.571Z,15.20
2022-09-16T00:13:18.793Z,15.20
2022-09-16T00:15:49.095Z,15.20
2022-09-16T00:18:16.179Z,15.20
2022-09-16T00:20:52.361Z,15.20
2022-09-16T00:23:20.104Z,15.20
2022-09-16T00:25:52.733Z,15.20
2022-09-16T00:28:21.849Z,15.20
2022-09-16T00:30:50.388Z,15.10
2022-09-16T00:33:18.846Z,15.20
2022-09-16T00:35:46.822Z,15.20
2022-09-16T00:38:14.260Z,15.20
2022-09-16T00:40:49.867Z,15.20
2022-09-16T00:43:19.630Z,15.20
2022-09-16T00:45:58.805Z,15.10
2022-09-16T00:48:29.202Z,15.20
2022-09-16T00:51:03.154Z,15.20
2022-09-16T00:53:42.737Z,15.20
2022-09-16T00:56:14.126Z,15.10
2022-09-16T00:59:13.015Z,15.20
2022-09-16T01:01:44.422Z,15.20
2022-09-16T01:04:23.423Z,15.20
2022-09-16T01:06:51.523Z,15.20
2022-09-16T01:09:23.074Z,15.20
2022-09-16T01:11:50.204Z,15.20
2022-09-16T01:14:38.364Z,15.20
2022-09-16T01:17:39.747Z,15.20
2022-09-16T01:21:19.096Z,15.20
2022-09-16T01:24:10.183Z,15.20
2022-09-16T01:27:07.180Z,15.20
2022-09-16T01:29:49.265Z,15.20
2022-09-16T01:32:32.188Z,15.30
2022-09-16T01:35:33.843Z,15.20
2022-09-16T01:38:22.943Z,15.30
2022-09-16T01:40:56.357Z,15.30
2022-09-16T01:43:54.879Z,15.20
2022-09-16T01:46:58.869Z,15.20
2022-09-16T01:49:38.773Z,15.30
2022-09-16T01:52:22.468Z,15.20
2022-09-16T01:55:04.839Z,15.20
2022-09-16T01:57:59.155Z,15.10
2022-09-16T02:00:26.485Z,15.20
2022-09-16T02:03:05.744Z,15.30
2022-09-16T02:05:55.359Z,15.30
2022-09-16T02:08:49.503Z,15.20
2022-09-16T02:11:18.961Z,15.30
2022-09-16T02:14:09.325Z,15.10
2022-09-16T02:16:45.740Z,15.30
2022-09-16T02:19:24.616Z,15.30
2022-09-16T02:21:55.983Z,15.30
2022-09-16T02:24:27.299Z,15.30
2022-09-16T02:27:00.965Z,15.30
2022-09-16T02:29:39.886Z,15.30
2022-09-16T02:32:10.207Z,15.30
2022-09-16T02:34:44.817Z,15.20
2022-09-16T02:37:39.465Z,15.30
2022-09-16T02:40:16.320Z,15.30
2022-09-16T02:42:43.698Z,15.30
2022-09-16T02:45:12.382Z,15.30
2022-09-16T02:48:13.399Z,15.30
2022-09-16T02:51:25.595Z,15.30
2022-09-16T02:54:01.992Z,15.30
2022-09-16T02:56:39.302Z,15.30
2022-09-16T02:59:11.089Z,15.40
2022-09-16T03:01:43.208Z,15.20
2022-09-16T03:04:16.919Z,15.40
2022-09-16T03:06:44.634Z,15.40
2022-09-16T03:09:18.130Z,15.30
2022-09-16T03:12:22.596Z,15.30
2022-09-16T03:15:33.402Z,15.30
2022-09-16T03:18:21.407Z,15.40
2022-09-16T03:21:21.590Z,15.30
2022-09-16T03:24:30.596Z,15.20
2022-09-16T03:27:11.195Z,15.30
2022-09-16T03:30:07.751Z,15.30
2022-09-16T03:32:54.908Z,15.30
2022-09-16T03:35:48.276Z,15.20
2022-09-16T03:38:18.005Z,15.40
2022-09-16T03:40:48.349Z,15.30
2022-09-16T03:43:17.161Z,15.40
2022-09-16T03:45:44.723Z,15.40
2022-09-16T03:48:13.748Z,15.30
2022-09-16T03:50:40.906Z,15.40
2022-09-16T03:53:08.356Z,15.40
2022-09-16T03:55:35.371Z,15.40
2022-09-16T03:58:02.483Z,15.40
2022-09-16T04:00:49.181Z,15.30
2022-09-16T04:03:16.297Z,15.40
2022-09-16T04:05:43.384Z,15.40
2022-09-16T04:08:10.335Z,15.30
2022-09-16T04:10:37.247Z,15.40
2022-09-16T04:13:04.374Z,15.40
2022-09-16T04:15:32.077Z,15.40
2022-09-16T04:18:01.045Z,15.30
2022-09-16T04:20:27.955Z,15.20
2022-09-16T04:22:55.013Z,15.40
2022-09-16T04:25:22.011Z,15.40
2022-09-16T04:27:48.977Z,15.40
2022-09-16T04:30:16.178Z,15.40
2022-09-16T04:32:43.214Z,15.30
2022-09-16T04:35:10.164Z,15.40
2022-09-16T04:37:37.155Z,15.40
2022-09-16T04:40:05.338Z,15.30
2022-09-16T04:42:32.543Z,15.30
2022-09-16T04:45:00.533Z,15.30
2022-09-16T04:47:27.470Z,15.30
2022-09-16T04:49:54.390Z,15.30
2022-09-16T04:52:21.397Z,15.10
2022-09-16T04:54:48.372Z,15.40
2022-09-16T04:57:15.337Z,15.30
2022-09-16T04:59:42.324Z,15.30
2022-09-16T05:02:11.907Z,15.30
2022-09-16T05:04:38.931Z,15.30
2022-09-16T05:07:06.078Z,15.30
2022-09-16T05:09:33.043Z,15.30
2022-09-16T05:11:59.974Z,15.30
2022-09-16T05:14:27.861Z,15.30
2022-09-16T05:16:54.864Z,15.30
2022-09-16T05:19:22.259Z,15.30
2022-09-16T05:21:49.415Z,15.30
2022-09-16T05:24:16.514Z,15.20
2022-09-16T05:26:43.795Z,15.30
2022-09-16T05:29:15.766Z,15.30
2022-09-16T05:31:47.460Z,15.30
2022-09-16T05:34:32.823Z,15.30
2022-09-16T05:37:00.558Z,15.40
2022-09-16T05:39:27.990Z,15.30
2022-09-16T05:42:00.189Z,15.30
2022-09-16T05:44:29.012Z,15.30
2022-09-16T05:46:56.725Z,15.40
2022-09-16T05:49:24.493Z,15.40
2022-09-16T05:51:52.943Z,15.30
2022-09-16T05:54:23.313Z,15.40
2022-09-16T05:56:51.070Z,15.50
2022-09-16T05:59:18.519Z,15.40
2022-09-16T06:01:46.832Z,15.50
2022-09-16T06:04:15.831Z,15.50
2022-09-16T06:06:45.635Z,15.50
2022-09-16T06:09:16.973Z,15.50
2022-09-16T06:11:48.968Z,15.50
2022-09-16T06:14:17.583Z,15.50
2022-09-16T06:16:45.940Z,15.60
2022-09-16T06:19:17.750Z,15.50
2022-09-16T06:21:46.030Z,15.60
2022-09-16T06:24:16.982Z,15.50
2022-09-16T06:26:46.329Z,15.60
2022-09-16T06:29:15.390Z,15.60
2022-09-16T06:31:43.119Z,15.60
2022-09-16T06:34:16.359Z,15.60
2022-09-16T06:36:45.355Z,15.60
2022-09-16T06:39:14.910Z,15.40
2022-09-16T06:41:42.184Z,15.70
2022-09-16T06:44:09.305Z,15.70
2022-09-16T06:46:37.035Z,15.70
2022-09-16T06:49:06.187Z,15.80
2022-09-16T06:51:35.074Z,15.80
2022-09-16T06:54:08.886Z,15.70
2022-09-16T06:56:37.718Z,15.90
2022-09-16T06:59:05.448Z,15.90
2022-09-16T07:01:33.846Z,16.00
2022-09-16T07:04:08.245Z,15.90
2022-09-16T07:07:08.537Z,16.00
2022-09-16T07:09:24.317Z,16.10
2022-09-16T07:11:51.296Z,16.10
2022-09-16T07:14:18.368Z,16.10
2022-09-16T07:16:45.429Z,16.20
2022-09-16T07:19:12.514Z,16.20
2022-09-16T07:21:41.280Z,16.30
2022-09-16T07:24:12.283Z,16.30
2022-09-16T07:26:41.696Z,16.40
2022-09-16T07:29:14.094Z,16.40
2022-09-16T07:31:41.849Z,16.40
2022-09-16T07:34:11.526Z,16.40
2022-09-16T07:36:40.235Z,16.50
2022-09-16T07:39:08.725Z,16.40
2022-09-16T07:41:39.373Z,16.50
2022-09-16T07:44:09.843Z,16.60
2022-09-16T07:46:37.440Z,16.60
2022-09-16T07:49:08.926Z,16.50
2022-09-16T07:51:36.692Z,16.70
2022-09-16T07:54:08.844Z,16.70
2022-09-16T07:56:39.054Z,16.70
2022-09-16T07:59:15.869Z,16.70
2022-09-16T08:01:46.435Z,16.60
2022-09-16T08:04:13.712Z,16.70
2022-09-16T08:06:41.218Z,16.70
2022-09-16T08:09:36.770Z,16.80
2022-09-16T08:11:55.804Z,16.80
2022-09-16T08:14:22.862Z,16.90
2022-09-16T08:16:52.485Z,16.90
2022-09-16T08:19:20.585Z,17.00
2022-09-16T08:21:47.676Z,17.00
2022-09-16T08:24:16.386Z,17.10
2022-09-16T08:26:43.511Z,17.20
2022-09-16T08:29:11.033Z,17.10
2022-09-16T08:31:38.962Z,17.20
2022-09-16T08:34:07.438Z,17.30
2022-09-16T08:36:34.634Z,17.40
2022-09-16T08:39:01.994Z,17.50
2022-09-16T08:42:01.212Z,17.60
2022-09-16T08:45:19.441Z,17.70
2022-09-16T08:48:07.930Z,17.80
2022-09-16T08:50:42.888Z,17.90
2022-09-16T08:53:28.308Z,17.90
2022-09-16T08:55:55.785Z,18.00
2022-09-16T08:58:30.421Z,17.90
2022-09-16T09:01:11.488Z,17.90
2022-09-16T09:03:45.480Z,18.00
2022-09-16T09:06:52.272Z,18.00
2022-09-16T09:10:24.509Z,18.00
2022-09-16T09:13:03.717Z,18.00
2022-09-16T09:15:44.283Z,18.00
2022-09-16T09:18:28.304Z,18.10
2022-09-16T09:21:18.729Z,18.10
2022-09-16T09:24:19.911Z,18.20
2022-09-16T09:27:18.013Z,18.30
2022-09-16T09:29:59.983Z,18.40
2022-09-16T09:33:41.563Z,18.50
2022-09-16T09:36:44.646Z,18.60
2022-09-16T09:39:20.279Z,18.70
2022-09-16T09:42:15.913Z,18.80
2022-09-16T09:45:17.413Z,18.90
2022-09-16T09:48:27.887Z,19.00
2022-09-16T09:50:55.045Z,19.10
2022-09-16T09:53:33.120Z,19.10
2022-09-16T09:56:15.798Z,19.20
2022-09-16T09:59:22.338Z,19.20
2022-09-16T10:01:55.413Z,19.30
2022-09-16T10:04:22.524Z,19.40
2022-09-16T10:06:54.317Z,19.40
2022-09-16T10:09:23.191Z,19.50
2022-09-16T10:11:55.879Z,19.40
2022-09-16T10:14:36.559Z,19.40
2022-09-16T10:17:14.916Z,19.40
2022-09-16T10:20:20.880Z,19.40
2022-09-16T10:23:27.584Z,19.40
2022-09-16T10:26:21.637Z,19.50
2022-09-16T10:29:02.483Z,19.40
2022-09-16T10:31:40.404Z,19.50
2022-09-16T10:34:19.519Z,19.50
2022-09-16T10:36:46.659Z,19.50
2022-09-16T10:39:33.838Z,19.50
2022-09-16T10:42:03.418Z,19.60
2022-09-16T10:44:33.884Z,19.70
2022-09-16T10:47:21.820Z,19.70
2022-09-16T10:50:01.596Z,19.70
2022-09-16T10:52:44.736Z,19.80
2022-09-16T10:55:27.652Z,19.70
2022-09-16T10:58:17.255Z,19.80
2022-09-16T11:01:12.096Z,19.80
2022-09-16T11:04:01.190Z,19.80
2022-09-16T11:07:14.424Z,19.80
2022-09-16T11:09:53.894Z,19.80
2022-09-16T11:13:04.362Z,19.80
2022-09-16T11:16:08.557Z,19.80
2022-09-16T11:19:00.109Z,19.80
2022-09-16T11:22:13.681Z,19.70
2022-09-16T11:25:24.514Z,19.70
2022-09-16T11:28:16.684Z,19.70
2022-09-16T11:31:01.121Z,19.50
2022-09-16T11:33:53.986Z,19.50
2022-09-16T11:36:34.572Z,19.50
2022-09-16T11:39:33.093Z,19.50
2022-09-16T11:42:24.192Z,19.40
2022-09-16T11:45:22.623Z,19.40
2022-09-16T11:48:32.863Z,19.40
2022-09-16T11:51:46.554Z,19.40
2022-09-16T11:54:38.340Z,19.40
2022-09-16T11:57:20.794Z,19.50
2022-09-16T12:00:02.623Z,19.50
2022-09-16T12:03:19.699Z,19.60
2022-09-16T12:05:55.070Z,19.70
2022-09-16T12:08:54.385Z,19.80
2022-09-16T12:11:48.568Z,19.80
2022-09-16T12:14:37.856Z,19.80
2022-09-16T12:17:24.347Z,19.90
2022-09-16T12:20:06.867Z,19.90
2022-09-16T12:22:41.275Z,20.10
2022-09-16T12:25:35.387Z,20.00
2022-09-16T12:28:37.880Z,20.10
2022-09-16T12:31:25.763Z,20.00
2022-09-16T12:34:20.934Z,20.00
2022-09-16T12:37:10.745Z,20.00
2022-09-16T12:39:38.368Z,19.90
2022-09-16T12:42:34.913Z,20.00
2022-09-16T12:45:26.366Z,20.00
2022-09-16T12:48:10.569Z,20.10
2022-09-16T12:50:58.569Z,20.20
2022-09-16T12:54:05.970Z,20.30
2022-09-16T12:56:38.810Z,20.40
2022-09-16T12:59:37.408Z,20.50
2022-09-16T13:02:22.280Z,20.50
2022-09-16T13:04:54.339Z,20.50
2022-09-16T13:07:35.818Z,20.50
2022-09-16T13:10:57.925Z,20.40
2022-09-16T13:13:36.190Z,20.30
2022-09-16T13:16:06.939Z,20.30
2022-09-16T13:18:50.751Z,20.10
2022-09-16T13:21:17.740Z,20.10
2022-09-16T13:23:52.087Z,19.90
2022-09-16T13:26:19.137Z,19.80
2022-09-16T13:28:47.042Z,19.80
2022-09-16T13:31:14.192Z,19.70
2022-09-16T13:34:03.871Z,19.60
2022-09-16T13:36:34.394Z,19.60
2022-09-16T13:39:07.001Z,19.50
2022-09-16T13:41:47.201Z,19.50
2022-09-16T13:44:37.370Z,19.40
2022-09-16T13:47:10.586Z,19.40
2022-09-16T13:50:00.484Z,19.40
2022-09-16T13:52:33.561Z,19.40
2022-09-16T13:55:21.555Z,19.40
2022-09-16T13:58:14.550Z,19.50
2022-09-16T14:00:58.703Z,19.50
2022-09-16T14:04:19.199Z,19.50
2022-09-16T14:06:57.924Z,19.50
2022-09-16T14:09:58.805Z,19.40
2022-09-16T14:13:11.099Z,19.50
2022-09-16T14:15:47.613Z,19.40
2022-09-16T14:18:20.302Z,19.50
2022-09-16T14:21:31.191Z,19.30
2022-09-16T14:24:22.822Z,19.40
2022-09-16T14:26:55.805Z,19.40
2022-09-16T14:39:09.192Z,19.20
2022-09-16T14:41:40.532Z,19.20
2022-09-16T14:44:19.469Z,19.20
2022-09-16T14:47:09.722Z,19.20
2022-09-16T14:49:43.024Z,19.20
2022-09-16T14:52:23.734Z,19.10
2022-09-16T14:54:51.832Z,19.20
2022-09-16T14:57:25.628Z,19.20
2022-09-16T14:59:59.249Z,19.20
2022-09-16T15:02:44.735Z,19.20
2022-09-16T15:05:35.023Z,19.20
2022-09-16T15:08:19.670Z,19.20
2022-09-16T15:10:53.198Z,19.20
2022-09-16T15:13:28.941Z,19.20
2022-09-16T15:16:03.245Z,19.20
2022-09-16T15:18:37.048Z,19.30
2022-09-16T15:21:20.756Z,19.20
2022-09-16T15:23:55.305Z,19.20
2022-09-16T15:26:28.981Z,19.20
2022-09-16T15:29:03.739Z,19.20
2022-09-16T15:31:41.049Z,19.20
2022-09-16T15:34:20.760Z,19.20
2022-09-16T15:36:55.461Z,19.20
2022-09-16T15:39:38.349Z,19.10
2022-09-16T15:42:23.935Z,19.10
2022-09-16T15:45:01.267Z,19.10
2022-09-16T15:47:54.172Z,19.00
2022-09-16T15:50:22.874Z,19.00
2022-09-16T15:52:58.663Z,18.90
2022-09-16T15:55:31.650Z,18.90
2022-09-16T15:58:32.898Z,18.80
2022-09-16T16:01:37.612Z,18.70
2022-09-16T16:04:09.186Z,18.70
2022-09-16T16:06:51.835Z,18.70
2022-09-16T16:09:27.831Z,18.70
2022-09-16T16:11:56.127Z,18.70
2022-09-16T16:14:24.662Z,18.60
2022-09-16T16:17:11.701Z,18.60
2022-09-16T16:19:41.181Z,18.60
2022-09-16T16:22:09.313Z,18.50
2022-09-16T16:24:36.949Z,18.50
2022-09-16T16:27:04.857Z,18.40
2022-09-16T16:29:32.552Z,18.40
2022-09-16T16:32:08.998Z,18.30
2022-09-16T16:34:39.611Z,18.30
2022-09-16T16:37:07.946Z,18.30
2022-09-16T16:39:35.508Z,18.20
2022-09-16T16:42:05.434Z,18.20
2022-09-16T16:44:33.353Z,18.10
2022-09-16T16:47:00.789Z,18.00
2022-09-16T16:49:27.966Z,18.00
2022-09-16T16:51:57.623Z,17.90
2022-09-16T16:54:25.401Z,17.90
2022-09-16T16:56:53.833Z,17.80
2022-09-16T16:59:24.614Z,17.70
2022-09-16T17:01:54.692Z,17.70
2022-09-16T17:04:23.188Z,17.70
2022-09-16T17:07:02.858Z,17.60
2022-09-16T17:09:38.199Z,17.50
2022-09-16T17:12:05.689Z,17.50
2022-09-16T17:14:33.416Z,17.40
2022-09-16T17:17:02.552Z,17.40
2022-09-16T17:19:29.728Z,17.30
2022-09-16T17:21:57.674Z,17.30
2022-09-16T17:24:24.564Z,17.30
2022-09-16T17:26:51.392Z,17.20
2022-09-16T17:29:18.384Z,17.20
2022-09-16T17:31:45.398Z,17.10
2022-09-16T17:34:15.601Z,17.10
2022-09-16T17:36:45.871Z,17.10
2022-09-16T17:39:20.678Z,17.00
2022-09-16T17:41:49.605Z,17.00
2022-09-16T17:44:18.483Z,17.00
2022-09-16T17:46:46.731Z,16.90
2022-09-16T17:49:23.787Z,16.90
2022-09-16T17:51:53.312Z,16.80
2022-09-16T17:54:21.584Z,16.80
2022-09-16T17:56:48.760Z,16.80
2022-09-16T17:59:18.588Z,16.70
2022-09-16T18:01:46.151Z,16.70
2022-09-16T18:04:13.403Z,16.70
2022-09-16T18:06:43.919Z,16.60
2022-09-16T18:09:13.198Z,16.60
2022-09-16T18:11:40.529Z,16.60
2022-09-16T18:14:13.191Z,16.60
2022-09-16T18:16:41.041Z,16.60
2022-09-16T18:19:08.499Z,16.50
2022-09-16T18:21:36.785Z,16.50
2022-09-16T18:24:05.627Z,16.50
2022-09-16T18:26:32.797Z,16.40
2022-09-16T18:29:11.268Z,16.40
2022-09-16T18:31:41.880Z,16.40
2022-09-16T18:34:09.420Z,16.40
2022-09-16T18:36:37.663Z,16.30
2022-09-16T18:39:06.010Z,16.30
2022-09-16T18:41:39.619Z,16.30
2022-09-16T18:44:14.306Z,16.20
2022-09-16T18:46:41.280Z,16.20
2022-09-16T18:49:12.503Z,16.20
2022-09-16T18:51:50.851Z,16.10
2022-09-16T18:54:28.460Z,16.10
2022-09-16T18:57:01.157Z,16.10
2022-09-16T18:59:32.121Z,16.10
2022-09-16T19:02:03.306Z,16.10
2022-09-16T19:04:36.820Z,16.10
2022-09-16T19:07:08.204Z,16.00
2022-09-16T19:09:41.355Z,16.00
2022-09-16T19:12:13.343Z,16.00
2022-09-16T19:14:40.912Z,16.00
2022-09-16T19:17:08.043Z,15.90
2022-09-16T19:19:35.313Z,15.90
2022-09-16T19:22:05.498Z,15.90
2022-09-16T19:24:32.962Z,15.90
2022-09-16T19:26:59.814Z,15.90
2022-09-16T19:29:26.660Z,15.90
2022-09-16T19:31:53.614Z,15.90
2022-09-16T19:34:21.529Z,15.80
2022-09-16T19:36:49.151Z,15.80
2022-09-16T19:39:16.189Z,15.80
2022-09-16T19:41:43.493Z,15.80
2022-09-16T19:44:14.397Z,15.70
2022-09-16T19:46:46.879Z,15.70
2022-09-16T19:49:19.784Z,15.70
2022-09-16T19:51:48.210Z,15.70
2022-09-16T19:54:16.143Z,15.70
2022-09-16T19:56:46.983Z,15.60
2022-09-16T19:59:17.699Z,15.60
2022-09-16T20:01:44.715Z,15.60
2022-09-16T20:04:11.907Z,15.60
2022-09-16T20:06:42.093Z,15.50
2022-09-16T20:09:12.061Z,15.50
2022-09-16T20:11:44.004Z,15.50
2022-09-16T20:14:18.755Z,15.50
2022-09-16T20:16:46.203Z,15.50
2022-09-16T20:19:16.118Z,15.50
2022-09-16T20:21:43.971Z,15.40
2022-09-16T20:24:20.879Z,15.40
2022-09-16T20:26:53.668Z,15.30
2022-09-16T20:29:21.459Z,15.30
2022-09-16T20:31:52.467Z,15.30
2022-09-16T20:34:22.917Z,15.30
2022-09-16T20:36:50.079Z,15.30
2022-09-16T20:39:16.909Z,15.20
2022-09-16T20:41:45.688Z,15.20
2022-09-16T20:44:16.146Z,15.20
2022-09-16T20:46:43.768Z,15.20
2022-09-16T20:49:16.421Z,15.20
2022-09-16T20:51:44.802Z,15.20
2022-09-16T20:54:14.121Z,15.10
2022-09-16T20:56:45.575Z,15.10
2022-09-16T20:59:16.059Z,15.10
2022-09-16T21:01:44.017Z,15.10
2022-09-16T21:04:20.029Z,15.10
2022-09-16T21:06:46.957Z,15.10
2022-09-16T21:09:15.775Z,15.10
2022-09-16T21:11:45.830Z,15.10
2022-09-16T21:14:15.805Z,15.00
2022-09-16T21:16:45.221Z,15.00
2022-09-16T21:19:13.371Z,15.00
2022-09-16T21:21:44.530Z,15.00
2022-09-16T21:24:13.408Z,14.90
2022-09-16T21:26:41.473Z,14.90
2022-09-16T21:29:15.166Z,14.90
2022-09-16T21:31:43.135Z,14.90
2022-09-16T21:34:17.082Z,14.90
2022-09-16T21:36:45.167Z,14.90
2022-09-16T21:39:14.135Z,14.80
2022-09-16T21:41:42.763Z,14.80
2022-09-16T21:44:10.743Z,14.80
2022-09-16T21:46:43.265Z,14.80
2022-09-16T21:49:24.110Z,14.70
2022-09-16T21:51:57.456Z,14.70
2022-09-16T21:54:25.653Z,14.70
2022-09-16T21:56:52.686Z,14.70
2022-09-16T21:59:20.633Z,14.70
2022-09-16T22:01:50.259Z,14.70
2022-09-16T22:04:22.259Z,14.70
2022-09-16T22:06:52.556Z,14.70
2022-09-16T22:09:19.445Z,14.70
2022-09-16T22:11:47.325Z,14.60
2022-09-16T22:14:14.852Z,14.70
2022-09-16T22:16:42.136Z,14.60
2022-09-16T22:19:14.278Z,14.60
2022-09-16T22:21:44.720Z,14.60
2022-09-16T22:24:12.480Z,14.60
2022-09-16T22:26:40.290Z,14.60
2022-09-16T22:29:12.921Z,14.60
2022-09-16T22:31:44.101Z,14.60
2022-09-16T22:34:11.430Z,14.50
2022-09-16T22:36:39.063Z,14.50
2022-09-16T22:39:14.888Z,14.50
2022-09-16T22:41:42.663Z,14.50
2022-09-16T22:44:09.806Z,14.50
2022-09-16T22:46:46.531Z,14.50
2022-09-16T22:49:15.136Z,14.50
2022-09-16T22:51:42.774Z,14.50
2022-09-16T22:54:12.728Z,14.50
2022-09-16T22:56:39.910Z,14.50
2022-09-16T22:59:08.263Z,14.50
2022-09-16T23:01:39.545Z,14.50
2022-09-16T23:04:09.165Z,14.50
2022-09-16T23:06:38.786Z,14.50
2022-09-16T23:09:08.192Z,14.40
2022-09-16T23:11:36.058Z,14.40
2022-09-16T23:14:06.300Z,14.40
2022-09-16T23:16:37.294Z,14.40
2022-09-16T23:19:08.476Z,14.40
2022-09-16T23:21:36.140Z,14.40
2022-09-16T23:24:05.638Z,14.40
2022-09-16T23:26:36.499Z,14.40
2022-09-16T23:29:07.640Z,14.40
2022-09-16T23:31:40.327Z,14.40
2022-09-16T23:34:21.894Z,14.30
2022-09-16T23:36:50.123Z,14.40
2022-09-16T23:39:17.916Z,14.40
2022-09-16T23:41:46.834Z,14.40
2022-09-16T23:44:15.618Z,14.30
2022-09-16T23:46:44.091Z,14.30
2022-09-16T23:49:12.079Z,14.30
2022-09-16T23:51:39.159Z,14.30
2022-09-16T23:54:06.234Z,14.30
2022-09-16T23:56:33.530Z,14.30
2022-09-16T23:59:01.141Z,14.30
